Time;durP1;ratioP1;P1;durP2;ratioP2;P2;SDS_P1;SDS_P2;PMS_P1;PMS_P2;Temp;Humidity;BMP_temperature;BMP_pressure;BME280_temperature;BME280_humidity;BME280_pressure;Samples;Min_cycle;Max_cycle;Signal;HPM_P1;HPM_P2
2021/12/11 00:03:21;;;;;;;7.78;1.50;;;10.20;99.90;;;;;;4934185;29;20062;-71
2021/12/11 00:06:29;;;;;;;7.93;1.70;;;10.30;99.90;;;;;;4934438;29;20050;-72
2021/12/11 00:09:50;;;;;;;8.60;2.25;;;10.30;99.90;;;;;;4934635;29;20047;-72
2021/12/11 00:12:56;;;;;;;;;;;10.20;99.90;;;;;;4935657;29;20050;-70
2021/12/11 00:16:00;;;;;;;8.07;1.58;;;10.10;99.90;;;;;;4935028;29;19914;-70
2021/12/11 00:19:09;;;;;;;8.43;1.48;;;10.00;99.90;;;;;;4934841;29;20693;-71
2021/12/11 00:22:17;;;;;;;10.90;1.98;;;10.00;99.90;;;;;;4935021;29;20507;-70
2021/12/11 00:25:22;;;;;;;6.38;1.73;;;10.10;99.90;;;;;;4934685;29;20063;-71
2021/12/11 00:28:26;;;;;;;8.55;1.73;;;10.10;99.90;;;;;;4933715;29;20051;-71
2021/12/11 00:31:33;;;;;;;10.20;1.58;;;10.10;99.90;;;;;;4934836;29;20207;-70
2021/12/11 00:34:43;;;;;;;8.05;1.30;;;10.00;99.90;;;;;;4934361;29;20043;-71
2021/12/11 00:37:49;;;;;;;14.13;1.83;;;9.90;99.90;;;;;;4934106;29;20051;-71
2021/12/11 00:40:55;;;;;;;15.43;2.28;;;9.90;99.90;;;;;;4934401;29;20376;-70
2021/12/11 00:44:01;;;;;;;9.52;2.20;;;9.80;99.90;;;;;;4934543;29;20591;-70
2021/12/11 00:47:18;;;;;;;12.55;2.45;;;9.80;99.90;;;;;;4933555;29;20040;-70
2021/12/11 00:50:26;;;;;;;13.55;2.40;;;9.70;99.90;;;;;;4934072;29;20057;-71
2021/12/11 00:53:33;;;;;;;11.00;2.30;;;9.70;99.90;;;;;;4934524;29;20066;-69
2021/12/11 00:56:41;;;;;;;10.57;2.30;;;9.40;99.90;;;;;;4934059;29;20412;-71
2021/12/11 00:59:45;;;;;;;7.43;1.70;;;9.20;99.90;;;;;;4934262;29;20047;-71
2021/12/11 01:02:54;;;;;;;8.77;2.30;;;9.00;99.90;;;;;;4934174;29;20043;-71
2021/12/11 01:06:01;;;;;;;13.02;2.13;;;9.00;99.90;;;;;;4933245;29;20512;-71
2021/12/11 01:09:11;;;;;;;11.18;2.70;;;8.90;99.90;;;;;;4934083;29;20054;-71
2021/12/11 01:12:24;;;;;;;8.98;2.42;;;8.80;99.90;;;;;;4934121;29;20051;-71
2021/12/11 01:15:44;;;;;;;14.43;2.33;;;8.90;99.90;;;;;;4934015;29;20233;-71
2021/12/11 01:18:55;;;;;;;18.23;2.40;;;9.00;99.90;;;;;;4933466;29;20050;-71
2021/12/11 01:22:01;;;;;;;18.95;3.45;;;9.20;99.90;;;;;;4934145;29;20054;-70
2021/12/11 01:25:08;;;;;;;18.38;2.78;;;9.30;99.90;;;;;;4932974;29;20046;-70
2021/12/11 01:28:14;;;;;;;16.83;2.97;;;9.50;99.90;;;;;;4933972;29;20070;-72
2021/12/11 01:31:22;;;;;;;26.90;3.22;;;9.60;99.90;;;;;;4933714;29;20062;-71
2021/12/11 01:34:27;;;;;;;19.20;3.08;;;9.70;99.90;;;;;;4933683;29;20051;-70
2021/12/11 01:37:32;;;;;;;17.58;2.63;;;9.70;99.90;;;;;;4934068;29;20058;-71
2021/12/11 01:40:36;;;;;;;24.52;2.97;;;9.80;99.90;;;;;;4933614;29;20404;-71
2021/12/11 01:43:41;;;;;;;19.08;2.65;;;9.80;99.90;;;;;;4933937;29;20043;-71
2021/12/11 01:46:46;;;;;;;21.63;2.65;;;9.90;99.90;;;;;;4933844;29;20051;-70
2021/12/11 01:49:54;;;;;;;21.92;3.25;;;9.90;99.90;;;;;;4937610;29;20047;-71
2021/12/11 01:53:05;;;;;;;22.10;3.88;;;10.00;99.90;;;;;;4937781;29;20047;-71
2021/12/11 01:56:23;;;;;;;25.48;3.40;;;10.00;99.90;;;;;;4937705;29;20059;-71
2021/12/11 01:59:34;;;;;;;20.17;3.38;;;10.00;99.90;;;;;;4937465;29;20047;-70
2021/12/11 02:02:44;;;;;;;14.43;2.67;;;10.00;99.90;;;;;;4937637;29;20046;-70
2021/12/11 02:05:49;;;;;;;20.13;3.00;;;10.00;99.90;;;;;;4937439;29;20054;-72
2021/12/11 02:08:53;;;;;;;21.55;2.60;;;9.90;99.90;;;;;;4937114;29;20042;-71
2021/12/11 02:12:09;;;;;;;12.38;3.03;;;9.70;99.90;;;;;;4937176;29;20330;-70
2021/12/11 02:15:31;;;;;;;16.02;2.45;;;9.60;99.90;;;;;;4937158;29;20051;-71
2021/12/11 02:18:36;;;;;;;;;;;9.60;99.90;;;;;;4937482;29;20050;-71
2021/12/11 02:21:48;;;;;;;16.10;2.95;;;9.50;99.90;;;;;;4936382;29;19918;-71
2021/12/11 02:24:59;;;;;;;21.70;3.42;;;9.50;99.90;;;;;;4936660;29;20046;-71
2021/12/11 02:28:08;;;;;;;20.08;4.22;;;9.40;99.90;;;;;;4937132;29;20050;-70
2021/12/11 02:31:15;;;;;;;26.55;5.43;;;9.40;99.90;;;;;;4936516;29;20055;-71
2021/12/11 02:34:25;;;;;;;20.40;3.55;;;9.30;99.90;;;;;;4937223;29;20055;-69
2021/12/11 02:37:48;;;;;;;22.25;3.80;;;9.40;99.90;;;;;;4937026;29;20436;-71
2021/12/11 02:41:19;;;;;;;23.35;3.50;;;9.40;99.90;;;;;;4936044;29;20054;-71
2021/12/11 02:44:44;;;;;;;14.10;3.38;;;9.50;99.90;;;;;;4936409;29;20039;-70
2021/12/11 02:47:57;;;;;;;13.55;2.92;;;9.50;99.90;;;;;;4936539;29;20059;-70
2021/12/11 02:51:24;;;;;;;23.17;2.92;;;9.60;99.90;;;;;;4936366;29;20058;-70
2021/12/11 02:54:37;;;;;;;15.13;2.60;;;9.50;99.90;;;;;;4936583;29;20491;-71
2021/12/11 02:57:45;;;;;;;7.00;1.48;;;9.60;99.90;;;;;;4936593;29;20058;-71
2021/12/11 03:00:52;;;;;;;13.07;1.60;;;9.60;99.90;;;;;;4935851;29;20088;-70
2021/12/11 03:04:14;;;;;;;11.68;2.95;;;9.70;99.90;;;;;;4935971;29;20494;-72
2021/12/11 03:07:35;;;;;;;8.68;1.20;;;9.80;99.90;;;;;;4936458;29;20050;-71
2021/12/11 03:10:43;;;;;;;9.77;1.75;;;9.90;99.90;;;;;;4936122;29;20059;-71
2021/12/11 03:13:51;;;;;;;13.02;1.42;;;10.00;99.90;;;;;;4936026;29;20040;-70
2021/12/11 03:16:56;;;;;;;10.18;1.67;;;10.00;99.90;;;;;;4935323;29;20046;-72
2021/12/11 03:20:01;;;;;;;11.90;1.75;;;10.00;99.90;;;;;;4935370;29;20051;-71
2021/12/11 03:23:07;;;;;;;10.38;1.15;;;10.00;99.90;;;;;;4935808;29;20050;-71
2021/12/11 03:26:12;;;;;;;12.82;1.35;;;10.00;99.90;;;;;;4936063;29;20411;-69
2021/12/11 03:29:16;;;;;;;12.35;2.33;;;10.00;99.90;;;;;;4935712;29;20380;-70
2021/12/11 03:32:21;;;;;;;4.70;1.27;;;10.00;99.90;;;;;;4935958;29;20055;-71
2021/12/11 03:35:26;;;;;;;8.07;1.00;;;10.00;99.90;;;;;;4934572;29;20120;-70
2021/12/11 03:38:31;;;;;;;9.73;1.17;;;10.00;99.90;;;;;;4934525;29;20117;-69
2021/12/11 03:41:36;;;;;;;5.13;1.00;;;10.00;99.90;;;;;;4935616;29;20055;-72
2021/12/11 03:44:41;;;;;;;9.18;0.98;;;9.90;99.90;;;;;;4935513;29;20051;-69
2021/12/11 03:47:51;;;;;;;6.47;0.80;;;9.90;99.90;;;;;;4935641;29;20388;-69
2021/12/11 03:50:57;;;;;;;6.75;1.27;;;9.90;99.90;;;;;;4935384;29;20511;-71
2021/12/11 03:54:06;;;;;;;4.20;1.00;;;9.90;99.90;;;;;;4935203;29;20031;-71
2021/12/11 03:57:15;;;;;;;5.30;0.90;;;9.80;99.90;;;;;;4935341;29;20046;-70
2021/12/11 04:00:20;;;;;;;5.13;0.77;;;9.80;99.90;;;;;;4935376;29;20473;-71
2021/12/11 04:03:28;;;;;;;5.55;1.02;;;9.80;99.90;;;;;;4935280;29;20491;-71
2021/12/11 04:06:32;;;;;;;2.75;0.60;;;9.80;99.90;;;;;;4934961;29;20101;-70
2021/12/11 04:09:37;;;;;;;7.22;0.70;;;9.80;99.90;;;;;;4935146;29;20392;-70
2021/12/11 04:12:41;;;;;;;6.15;1.02;;;9.90;99.90;;;;;;4933889;29;20052;-71
2021/12/11 04:15:49;;;;;;;4.90;1.17;;;9.90;99.90;;;;;;4934813;29;20036;-71
2021/12/11 04:18:53;;;;;;;8.55;1.13;;;9.90;99.90;;;;;;4934683;29;20059;-70
2021/12/11 04:21:58;;;;;;;9.20;1.20;;;9.90;99.90;;;;;;4934593;29;20497;-71
2021/12/11 04:25:05;;;;;;;9.45;1.33;;;9.90;99.90;;;;;;4933918;29;20503;-71
2021/12/11 04:28:10;;;;;;;8.52;1.85;;;9.90;99.90;;;;;;4934945;29;20040;-71
2021/12/11 04:31:20;;;;;;;11.02;1.52;;;9.80;99.90;;;;;;4934431;29;20219;-70
2021/12/11 04:34:32;;;;;;;7.78;1.27;;;9.80;99.90;;;;;;5068163;28;20149;-72
2021/12/11 04:37:37;;;;;;;10.55;1.45;;;9.70;99.90;;;;;;5068318;28;20033;-70
2021/12/11 04:40:47;;;;;;;6.60;1.58;;;9.70;99.90;;;;;;5068736;28;20036;-71
2021/12/11 04:43:53;;;;;;;8.95;1.40;;;9.70;99.90;;;;;;5068287;28;20041;-71
2021/12/11 04:46:57;;;;;;;7.70;1.55;;;9.70;99.90;;;;;;5068319;28;20032;-71
2021/12/11 04:50:10;;;;;;;8.25;1.65;;;9.70;99.90;;;;;;5067145;28;20036;-71
2021/12/11 04:53:45;;;;;;;11.95;1.80;;;9.80;99.90;;;;;;5067211;28;20044;-71
2021/12/11 05:03:32;;;;;;;6.90;1.15;;;9.70;99.90;;;;;;5067916;28;20032;-71
2021/12/11 05:06:54;;;;;;;6.85;1.33;;;9.60;99.90;;;;;;5067640;28;20066;-70
2021/12/11 05:10:17;;;;;;;7.50;1.38;;;9.60;99.90;;;;;;5067626;28;20037;-71
2021/12/11 05:13:23;;;;;;;5.35;1.15;;;9.60;99.90;;;;;;5067427;28;20044;-71
2021/12/11 05:16:27;;;;;;;8.02;1.40;;;9.60;99.90;;;;;;5066948;28;20029;-71
2021/12/11 05:19:32;;;;;;;8.07;1.30;;;9.60;99.90;;;;;;5066552;28;20040;-69
2021/12/11 05:22:36;;;;;;;3.63;1.00;;;9.50;99.90;;;;;;5067511;28;20369;-71
2021/12/11 05:25:40;;;;;;;6.97;0.90;;;9.40;99.90;;;;;;5067514;28;20036;-71
2021/12/11 05:28:45;;;;;;;5.15;0.90;;;9.30;99.90;;;;;;5067545;28;20040;-71
2021/12/11 05:31:49;;;;;;;7.60;1.60;;;9.30;99.90;;;;;;5066606;28;20041;-71
2021/12/11 05:34:55;;;;;;;12.05;2.58;;;9.30;99.90;;;;;;5067285;28;20052;-72
2021/12/11 05:37:59;;;;;;;2.33;0.77;;;9.50;99.90;;;;;;5067329;28;20029;-71
2021/12/11 05:41:05;;;;;;;4.78;0.90;;;9.50;99.90;;;;;;5067238;28;20052;-71
2021/12/11 05:44:10;;;;;;;5.15;0.73;;;9.50;99.90;;;;;;5062991;28;20041;-71
2021/12/11 05:47:16;;;;;;;4.50;1.33;;;9.50;99.90;;;;;;5053921;28;20053;-71
2021/12/11 05:50:29;;;;;;;6.68;1.63;;;9.40;99.90;;;;;;5052727;28;20029;-71
2021/12/11 05:53:34;;;;;;;6.93;1.40;;;9.30;99.90;;;;;;5053523;28;20049;-71
2021/12/11 05:56:40;;;;;;;5.10;1.38;;;9.20;99.90;;;;;;5053715;28;20033;-70
2021/12/11 05:59:46;;;;;;;6.15;2.15;;;9.10;99.90;;;;;;5053433;28;20485;-71
2021/12/11 06:02:50;;;;;;;9.43;2.25;;;9.00;99.90;;;;;;5053590;28;20033;-71
2021/12/11 06:05:56;;;;;;;3.97;1.77;;;8.90;99.90;;;;;;5053299;28;20044;-72
2021/12/11 06:09:02;;;;;;;5.82;1.90;;;8.90;99.90;;;;;;5053536;28;20033;-71
2021/12/11 06:12:11;;;;;;;5.38;1.73;;;8.80;99.90;;;;;;5053437;28;20037;-72
2021/12/11 06:15:15;;;;;;;7.35;1.60;;;8.80;99.90;;;;;;5053048;28;20041;-72
2021/12/11 06:18:20;;;;;;;7.32;1.70;;;8.80;99.90;;;;;;5053056;28;20041;-71
2021/12/11 06:21:24;;;;;;;3.35;1.50;;;8.80;99.90;;;;;;5052897;28;20040;-71
2021/12/11 06:24:28;;;;;;;10.88;2.33;;;8.90;99.90;;;;;;5052061;28;20037;-72
2021/12/11 06:27:32;;;;;;;4.22;1.80;;;9.00;99.90;;;;;;5052695;28;20382;-72
2021/12/11 06:30:38;;;;;;;5.70;1.70;;;9.00;99.90;;;;;;5052791;28;20037;-71
2021/12/11 06:33:43;;;;;;;7.00;2.47;;;9.10;99.90;;;;;;5052211;28;20406;-72
2021/12/11 06:36:47;;;;;;;7.50;2.60;;;9.20;99.90;;;;;;5052692;28;20037;-64
2021/12/11 06:39:53;;;;;;;8.15;2.95;;;9.20;99.90;;;;;;5053000;28;20041;-64
2021/12/11 06:42:57;;;;;;;9.40;3.30;;;9.20;99.90;;;;;;5052551;28;20040;-64
2021/12/11 06:46:01;;;;;;;7.20;3.10;;;9.20;99.90;;;;;;5052589;28;20476;-63
2021/12/11 06:49:05;;;;;;;4.55;1.95;;;9.10;99.90;;;;;;5052677;28;20041;-63
2021/12/11 06:52:14;;;;;;;9.95;2.15;;;9.00;99.90;;;;;;5052606;28;20028;-61
2021/12/11 06:55:19;;;;;;;8.48;2.03;;;9.00;99.90;;;;;;5052117;28;20053;-62
2021/12/11 06:58:25;;;;;;;5.90;2.00;;;9.10;99.90;;;;;;5052335;28;20029;-62
2021/12/11 07:01:29;;;;;;;6.53;1.83;;;9.10;99.90;;;;;;5051234;28;20037;-62
2021/12/11 07:04:33;;;;;;;7.10;2.03;;;9.10;99.90;;;;;;5051912;28;20375;-62
2021/12/11 07:07:37;;;;;;;4.45;1.85;;;9.10;99.90;;;;;;5052293;28;20041;-63
2021/12/11 07:10:42;;;;;;;8.55;2.08;;;9.10;99.90;;;;;;5052424;28;20037;-62
2021/12/11 07:13:46;;;;;;;4.72;1.70;;;9.10;99.90;;;;;;5051792;28;20037;-61
2021/12/11 07:16:51;;;;;;;8.35;1.58;;;9.10;99.90;;;;;;5051766;28;20100;-62
2021/12/11 07:19:56;;;;;;;5.05;1.83;;;9.00;99.90;;;;;;5051812;28;20033;-65
2021/12/11 07:23:00;;;;;;;6.60;1.95;;;8.90;99.90;;;;;;5051065;28;20041;-61
2021/12/11 07:26:16;;;;;;;5.10;2.05;;;8.90;99.90;;;;;;5051915;28;20041;-62
2021/12/11 07:29:21;;;;;;;5.78;1.98;;;8.90;99.90;;;;;;5051458;28;20489;-61
2021/12/11 07:32:25;;;;;;;6.57;2.17;;;9.00;99.90;;;;;;5051311;28;20041;-65
2021/12/11 07:35:29;;;;;;;7.28;3.35;;;9.00;99.90;;;;;;5051451;28;20041;-64
2021/12/11 07:38:33;;;;;;;11.68;3.53;;;9.10;99.90;;;;;;5050520;28;20041;-64
2021/12/11 07:41:37;;;;;;;6.10;1.67;;;9.00;99.90;;;;;;5051717;28;20048;-65
2021/12/11 07:44:42;;;;;;;6.28;1.88;;;9.00;99.90;;;;;;5051694;28;20041;-65
2021/12/11 07:47:46;;;;;;;8.23;1.88;;;8.90;99.90;;;;;;5050529;28;20036;-64
2021/12/11 07:50:50;;;;;;;3.25;1.40;;;8.80;99.90;;;;;;5051081;28;20041;-64
2021/12/11 07:53:55;;;;;;;5.07;1.40;;;8.80;99.90;;;;;;5050761;28;20508;-62
2021/12/11 07:56:59;;;;;;;2.17;0.95;;;8.80;99.90;;;;;;5050847;28;20037;-62
2021/12/11 08:00:09;;;;;;;4.95;1.50;;;8.80;99.90;;;;;;5050994;28;20172;-62
2021/12/11 08:03:18;;;;;;;4.35;2.22;;;8.80;99.90;;;;;;5050770;28;20037;-64
2021/12/11 08:06:23;;;;;;;16.48;5.50;;;8.80;99.90;;;;;;5051178;28;20033;-65
2021/12/11 08:09:27;;;;;;;8.93;4.07;;;8.80;99.90;;;;;;5050671;28;20048;-65
2021/12/11 08:12:30;;;;;;;6.55;3.20;;;8.90;99.90;;;;;;5050288;28;20041;-62
2021/12/11 08:15:35;;;;;;;9.65;5.10;;;8.90;99.90;;;;;;5050713;28;20056;-65
2021/12/11 08:18:40;;;;;;;4.45;2.53;;;9.00;99.90;;;;;;5050853;28;20041;-64
2021/12/11 08:21:45;;;;;;;7.72;3.30;;;9.00;99.90;;;;;;5050489;28;20369;-67
2021/12/11 08:24:50;;;;;;;7.25;3.65;;;9.10;99.90;;;;;;5050782;28;20343;-64
2021/12/11 08:27:55;;;;;;;9.48;4.00;;;9.10;99.90;;;;;;5050750;28;20052;-62
2021/12/11 08:31:00;;;;;;;7.68;3.60;;;9.10;99.90;;;;;;5050801;28;20515;-65
2021/12/11 08:34:04;;;;;;;14.45;3.13;;;9.10;99.90;;;;;;5050230;28;20429;-64
2021/12/11 08:37:11;;;;;;;5.22;3.33;;;9.10;99.90;;;;;;5050847;28;20032;-63
2021/12/11 08:40:20;;;;;;;7.63;4.60;;;9.10;99.90;;;;;;5050831;28;20465;-67
2021/12/11 08:43:26;;;;;;;6.07;3.05;;;9.10;99.90;;;;;;5050214;28;20040;-67
2021/12/11 08:46:33;;;;;;;7.30;3.45;;;9.00;99.90;;;;;;5050466;28;20045;-63
2021/12/11 08:49:41;;;;;;;4.95;2.80;;;9.00;99.90;;;;;;5050476;28;20037;-64
2021/12/11 08:52:49;;;;;;;3.83;2.20;;;9.00;99.90;;;;;;5050440;28;20044;-64
2021/12/11 08:55:54;;;;;;;5.90;4.00;;;9.00;99.90;;;;;;5050640;28;20041;-65
2021/12/11 08:58:58;;;;;;;6.55;4.00;;;9.00;99.90;;;;;;5050480;28;20037;-66
2021/12/11 09:02:10;;;;;;;6.18;3.72;;;9.00;99.90;;;;;;5050340;28;20036;-65
2021/12/11 09:05:20;;;;;;;5.68;3.45;;;9.00;99.90;;;;;;5050104;28;20041;-64
2021/12/11 09:08:51;;;;;;;7.38;3.92;;;9.00;99.90;;;;;;5050430;28;20041;-64
2021/12/11 09:12:10;;;;;;;8.35;3.72;;;8.90;99.90;;;;;;5050030;28;20479;-63
2021/12/11 09:15:23;;;;;;;3.88;2.30;;;8.90;99.90;;;;;;5050271;28;20049;-63
2021/12/11 09:18:35;;;;;;;5.63;3.17;;;8.70;99.90;;;;;;5050228;28;20041;-65
2021/12/11 09:21:52;;;;;;;5.85;4.18;;;8.70;99.90;;;;;;5054149;28;20033;-65
2021/12/11 09:25:25;;;;;;;6.45;4.10;;;8.80;99.90;;;;;;5053635;28;20040;-66
2021/12/11 09:28:46;;;;;;;9.30;4.20;;;8.70;99.90;;;;;;5053760;28;20037;-64
2021/12/11 09:32:05;;;;;;;;;;;8.60;99.90;;;;;;5054505;28;20040;-64
2021/12/11 09:35:38;;;;;;;6.65;4.70;;;8.70;99.90;;;;;;5053271;28;20383;-64
2021/12/11 09:38:46;;;;;;;7.78;5.38;;;8.80;99.90;;;;;;5053904;28;20148;-65
2021/12/11 09:41:50;;;;;;;7.53;4.82;;;8.70;99.90;;;;;;5053574;28;20041;-64
2021/12/11 09:45:18;;;;;;;6.28;4.72;;;8.60;99.90;;;;;;5053207;28;20488;-64
2021/12/11 09:48:22;;;;;;;8.02;4.90;;;8.50;99.90;;;;;;5053555;28;20041;-65
2021/12/11 09:51:33;;;;;;;7.45;4.80;;;8.60;99.90;;;;;;5053539;28;20045;-66
2021/12/11 09:54:37;;;;;;;8.82;6.18;;;8.70;99.90;;;;;;5053086;28;20385;-66
2021/12/11 09:57:46;;;;;;;8.05;6.20;;;8.70;99.90;;;;;;5053410;28;20044;-65
2021/12/11 10:00:55;;;;;;;11.70;6.65;;;8.60;99.90;;;;;;5053468;28;20045;-64
2021/12/11 10:04:17;;;;;;;11.23;7.05;;;8.50;99.90;;;;;;5053068;28;20044;-63
2021/12/11 10:07:28;;;;;;;12.63;7.85;;;8.60;99.90;;;;;;5052077;28;20046;-64
2021/12/11 10:10:32;;;;;;;10.23;7.88;;;8.60;99.90;;;;;;5053302;28;20048;-65
2021/12/11 10:13:57;;;;;;;12.55;7.60;;;8.70;99.90;;;;;;5052908;28;20061;-65
2021/12/11 10:17:09;;;;;;;11.52;7.43;;;8.60;99.90;;;;;;5052929;28;20040;-64
2021/12/11 10:20:29;;;;;;;13.27;7.13;;;8.60;99.90;;;;;;5052917;28;20496;-64
2021/12/11 10:23:36;;;;;;;13.65;7.38;;;8.60;99.90;;;;;;5052685;28;20389;-64
2021/12/11 10:26:41;;;;;;;12.20;7.25;;;8.60;99.90;;;;;;5052571;28;20044;-64
2021/12/11 10:29:45;;;;;;;13.70;8.25;;;8.70;99.90;;;;;;5052668;28;20312;-64
2021/12/11 10:32:51;;;;;;;19.80;10.20;;;8.80;99.90;;;;;;5052458;28;20049;-63
2021/12/11 10:35:59;;;;;;;16.80;10.57;;;8.90;99.90;;;;;;5052823;28;20499;-63
2021/12/11 10:39:09;;;;;;;14.95;9.55;;;9.00;99.90;;;;;;5052516;28;20040;-64
2021/12/11 10:42:14;;;;;;;13.18;8.50;;;9.10;99.90;;;;;;5052572;28;20389;-66
2021/12/11 10:45:19;;;;;;;12.38;8.95;;;9.20;99.90;;;;;;5052379;28;20033;-63
2021/12/11 10:48:26;;;;;;;17.00;9.85;;;9.20;99.90;;;;;;5052731;28;20396;-63
2021/12/11 10:51:36;;;;;;;13.93;9.35;;;9.30;99.90;;;;;;5052481;28;20045;-64
2021/12/11 10:54:41;;;;;;;14.93;10.43;;;9.50;99.90;;;;;;5051185;28;20041;-63
2021/12/11 10:57:45;;;;;;;14.88;9.20;;;9.40;99.90;;;;;;5052367;28;20131;-64
2021/12/11 11:00:55;;;;;;;12.75;9.48;;;9.60;99.90;;;;;;5052046;28;20116;-64
2021/12/11 11:04:07;;;;;;;12.27;9.27;;;9.80;99.90;;;;;;5052277;28;20036;-63
2021/12/11 11:07:12;;;;;;;14.65;9.20;;;9.90;99.90;;;;;;5052132;28;20036;-62
2021/12/11 11:10:21;;;;;;;12.85;9.30;;;10.10;99.90;;;;;;5051877;28;20036;-63
2021/12/11 11:13:25;;;;;;;13.45;9.10;;;10.20;99.90;;;;;;5051090;28;20043;-63
2021/12/11 11:16:30;;;;;;;12.80;8.43;;;10.40;99.90;;;;;;5051443;28;20043;-62
2021/12/11 11:19:38;;;;;;;9.30;5.95;;;10.50;99.90;;;;;;5052021;28;20055;-62
2021/12/11 11:22:44;;;;;;;9.90;5.75;;;10.60;99.90;;;;;;5051718;28;20040;-63
2021/12/11 11:25:54;;;;;;;5.40;3.97;;;10.70;99.90;;;;;;5051706;28;20041;-63
2021/12/11 11:29:00;;;;;;;6.90;4.13;;;10.80;99.90;;;;;;5051652;28;20068;-63
2021/12/11 11:32:09;;;;;;;2.58;1.90;;;10.80;99.90;;;;;;5050645;28;20044;-63
2021/12/11 11:35:18;;;;;;;4.00;1.60;;;10.90;99.90;;;;;;5051241;28;20045;-64
2021/12/11 11:38:29;;;;;;;5.07;1.15;;;10.90;99.90;;;;;;5051304;28;20044;-62
2021/12/11 11:41:44;;;;;;;3.22;1.50;;;10.80;99.90;;;;;;5051359;28;20417;-62
2021/12/11 11:44:49;;;;;;;1.83;1.50;;;10.90;99.90;;;;;;5050233;28;20060;-62
2021/12/11 11:47:54;;;;;;;3.17;1.80;;;10.90;99.90;;;;;;5051054;28;20044;-64
2021/12/11 11:51:01;;;;;;;6.57;3.92;;;11.00;99.90;;;;;;5051464;28;20041;-63
2021/12/11 11:54:08;;;;;;;5.75;4.00;;;11.00;99.90;;;;;;5050988;28;20048;-63
2021/12/11 11:57:18;;;;;;;2.20;1.70;;;11.00;99.90;;;;;;5050972;28;20041;-63
2021/12/11 12:00:35;;;;;;;11.13;2.80;;;11.00;98.40;;;;;;5050458;28;20054;-63
2021/12/11 12:03:39;;;;;;;2.92;2.05;;;11.00;97.70;;;;;;5051080;28;20270;-63
2021/12/11 12:06:48;;;;;;;2.33;1.80;;;11.00;98.50;;;;;;5050975;28;20397;-62
2021/12/11 12:09:56;;;;;;;3.25;2.10;;;10.90;96.80;;;;;;5051166;28;20048;-62
2021/12/11 12:13:07;;;;;;;3.70;1.58;;;11.00;96.50;;;;;;5050656;28;20041;-62
2021/12/11 12:16:13;;;;;;;2.28;1.70;;;11.00;96.80;;;;;;5049585;28;20048;-62
2021/12/11 12:19:19;;;;;;;2.58;1.67;;;11.00;96.70;;;;;;5039130;28;20029;-62
2021/12/11 12:22:26;;;;;;;2.47;1.80;;;11.00;95.70;;;;;;5051320;28;20380;-63
2021/12/11 12:25:30;;;;;;;2.38;1.90;;;11.00;95.60;;;;;;5051193;28;20048;-64
2021/12/11 12:28:35;;;;;;;2.75;1.80;;;11.00;96.30;;;;;;5048127;28;20483;-63
2021/12/11 12:31:46;;;;;;;5.07;3.20;;;11.10;95.60;;;;;;5049194;28;20040;-64
2021/12/11 12:34:53;;;;;;;4.78;3.03;;;11.10;95.70;;;;;;5048532;28;20052;-64
2021/12/11 12:38:01;;;;;;;6.45;2.80;;;11.10;95.80;;;;;;5048917;28;20040;-64
2021/12/11 12:41:08;;;;;;;3.58;2.20;;;11.10;95.90;;;;;;5048777;28;20040;-65
2021/12/11 12:44:17;;;;;;;4.85;2.80;;;11.20;94.30;;;;;;5050637;28;20052;-63
2021/12/11 12:47:25;;;;;;;4.05;2.60;;;11.20;94.50;;;;;;5050469;28;20044;-63
2021/12/11 12:50:45;;;;;;;4.68;3.20;;;11.20;94.50;;;;;;5050615;28;20029;-65
2021/12/11 12:53:50;;;;;;;3.63;1.40;;;11.30;94.70;;;;;;5050641;28;20048;-64
2021/12/11 12:57:04;;;;;;;2.67;1.52;;;11.30;94.20;;;;;;5054433;28;20052;-63
2021/12/11 13:00:19;;;;;;;5.57;2.10;;;11.30;94.30;;;;;;5052226;28;20053;-64
2021/12/11 13:03:27;;;;;;;4.05;3.17;;;11.40;94.30;;;;;;5054053;28;20045;-64
2021/12/11 13:06:37;;;;;;;2.28;1.58;;;11.50;94.40;;;;;;5052735;28;20047;-64
2021/12/11 13:09:47;;;;;;;3.22;1.63;;;11.40;93.60;;;;;;5054063;28;20215;-64
2021/12/11 13:12:55;;;;;;;3.40;2.10;;;11.40;94.20;;;;;;5054170;28;20037;-65
2021/12/11 13:16:16;;;;;;;2.42;1.77;;;11.50;93.90;;;;;;5053731;28;20056;-64
2021/12/11 13:19:26;;;;;;;2.17;1.50;;;11.40;93.90;;;;;;5054361;28;20033;-66
2021/12/11 13:22:35;;;;;;;2.70;1.90;;;11.40;93.80;;;;;;5054209;28;20036;-66
2021/12/11 13:25:47;;;;;;;4.85;2.40;;;11.40;94.30;;;;;;5054304;28;20045;-67
2021/12/11 13:28:55;;;;;;;2.70;2.10;;;11.40;94.60;;;;;;5054930;28;20393;-66
2021/12/11 13:32:07;;;;;;;5.03;3.10;;;11.50;93.70;;;;;;5054473;28;20037;-67
2021/12/11 13:35:16;;;;;;;3.75;2.67;;;11.50;93.60;;;;;;5053596;28;20055;-66
2021/12/11 13:38:23;;;;;;;1.85;1.25;;;11.40;94.00;;;;;;5054296;28;20499;-65
2021/12/11 13:41:31;;;;;;;2.20;1.40;;;11.40;93.00;;;;;;5053354;28;20657;-66
2021/12/11 13:44:39;;;;;;;2.00;1.55;;;11.40;92.40;;;;;;5054167;28;20211;-64
2021/12/11 13:47:44;;;;;;;6.63;2.38;;;11.40;93.00;;;;;;5053155;28;20049;-65
2021/12/11 13:50:57;;;;;;;3.38;2.10;;;11.40;92.10;;;;;;5053875;28;20036;-64
2021/12/11 13:54:02;;;;;;;2.05;1.25;;;11.40;92.80;;;;;;5053729;28;20056;-64
2021/12/11 13:57:13;;;;;;;2.17;1.20;;;11.40;91.60;;;;;;5053653;28;20515;-65
2021/12/11 14:00:29;;;;;;;2.15;1.50;;;11.30;91.20;;;;;;5053785;28;20048;-66
2021/12/11 14:03:33;;;;;;;2.95;1.70;;;11.30;91.60;;;;;;5053311;28;20048;-63
2021/12/11 14:06:47;;;;;;;3.40;1.83;;;11.30;91.80;;;;;;5052966;28;20033;-64
2021/12/11 14:09:58;;;;;;;2.50;1.70;;;11.30;92.40;;;;;;5053566;28;20049;-64
2021/12/11 14:13:05;;;;;;;3.95;2.13;;;11.30;92.00;;;;;;5053051;28;20044;-64
2021/12/11 14:16:10;;;;;;;4.68;2.58;;;11.30;91.80;;;;;;5053160;28;20055;-64
2021/12/11 14:19:16;;;;;;;5.75;3.35;;;11.30;92.20;;;;;;5053228;28;20048;-65
2021/12/11 14:22:23;;;;;;;5.28;3.08;;;11.30;92.60;;;;;;5052930;28;20045;-65
2021/12/11 14:25:32;;;;;;;5.13;3.00;;;11.30;92.60;;;;;;5052127;28;20424;-64
2021/12/11 14:28:36;;;;;;;4.72;3.10;;;11.20;92.00;;;;;;5052986;28;20507;-64
2021/12/11 14:31:42;;;;;;;4.80;3.28;;;11.30;92.50;;;;;;5052102;28;20054;-66
2021/12/11 14:34:47;;;;;;;21.27;11.15;;;11.30;92.30;;;;;;5052554;28;20052;-64
2021/12/11 14:37:52;;;;;;;9.45;5.45;;;11.30;92.80;;;;;;5051955;28;20508;-66
2021/12/11 14:40:57;;;;;;;7.90;4.97;;;11.30;93.20;;;;;;5052710;28;20041;-67
2021/12/11 14:44:04;;;;;;;7.60;4.60;;;11.30;94.00;;;;;;5051729;28;20056;-65
2021/12/11 14:47:10;;;;;;;8.05;3.65;;;11.30;94.40;;;;;;5052591;28;20051;-65
2021/12/11 14:50:19;;;;;;;11.07;7.03;;;11.30;94.50;;;;;;5051356;28;20045;-65
2021/12/11 14:53:27;;;;;;;10.15;7.05;;;11.30;94.80;;;;;;5052436;28;20032;-65
2021/12/11 14:56:36;;;;;;;12.82;5.70;;;11.20;94.60;;;;;;5052400;28;20060;-65
2021/12/11 14:59:44;;;;;;;10.10;5.28;;;11.20;94.00;;;;;;5050965;28;20043;-65
2021/12/11 15:02:50;;;;;;;6.70;3.95;;;11.20;93.70;;;;;;5051929;28;20052;-64
2021/12/11 15:05:54;;;;;;;7.90;4.80;;;11.20;93.90;;;;;;5052343;28;20503;-65
2021/12/11 15:08:58;;;;;;;11.43;6.53;;;11.30;93.80;;;;;;5052446;28;20048;-64
2021/12/11 15:12:04;;;;;;;4.35;3.05;;;11.20;93.70;;;;;;5052507;28;20397;-65
2021/12/11 15:15:10;;;;;;;8.32;5.70;;;11.20;93.00;;;;;;5051946;28;20054;-66
2021/12/11 15:18:15;;;;;;;8.45;6.25;;;11.20;93.10;;;;;;5051237;28;20041;-65
2021/12/11 15:21:23;;;;;;;13.48;9.45;;;11.20;93.40;;;;;;5052120;28;20045;-65
2021/12/11 15:24:28;;;;;;;12.23;8.20;;;11.10;93.40;;;;;;5051878;28;20405;-64
2021/12/11 15:27:33;;;;;;;16.20;10.45;;;11.10;93.90;;;;;;5051889;28;20044;-65
2021/12/11 15:30:42;;;;;;;17.35;11.23;;;11.00;94.10;;;;;;5052199;28;20519;-65
2021/12/11 15:33:51;;;;;;;18.70;11.73;;;11.00;94.30;;;;;;5051356;28;20106;-65
2021/12/11 15:36:58;;;;;;;16.17;10.52;;;10.90;94.50;;;;;;5051636;28;20416;-65
2021/12/11 15:40:05;;;;;;;11.63;8.00;;;10.80;95.10;;;;;;5051433;28;20108;-65
2021/12/11 15:43:14;;;;;;;15.10;9.57;;;10.80;94.80;;;;;;5051106;28;20043;-65
2021/12/11 15:46:22;;;;;;;11.38;6.53;;;10.70;94.60;;;;;;5051158;28;20064;-65
2021/12/11 15:49:27;;;;;;;9.88;5.80;;;10.70;94.70;;;;;;5051722;28;20052;-65
2021/12/11 15:52:31;;;;;;;10.25;6.20;;;10.70;94.10;;;;;;5051143;28;20041;-64
2021/12/11 15:55:39;;;;;;;7.72;5.60;;;10.60;94.20;;;;;;5050227;28;20075;-64
2021/12/11 15:58:48;;;;;;;11.68;6.80;;;10.60;94.00;;;;;;5051170;28;20496;-64
2021/12/11 16:01:52;;;;;;;13.48;8.05;;;10.60;93.70;;;;;;5051355;28;20063;-64
2021/12/11 16:04:57;;;;;;;20.45;9.93;;;10.60;94.10;;;;;;5050812;28;20044;-64
2021/12/11 16:08:03;;;;;;;33.17;19.25;;;10.50;94.20;;;;;;5051155;28;20056;-65
2021/12/11 16:11:08;;;;;;;69.38;38.28;;;10.60;94.20;;;;;;5050781;28;20056;-64
2021/12/11 16:14:15;;;;;;;36.58;22.77;;;10.50;93.90;;;;;;5050526;28;20052;-64
2021/12/11 16:17:20;;;;;;;15.30;8.68;;;10.60;93.90;;;;;;5050583;28;20068;-64
2021/12/11 16:20:30;;;;;;;51.00;28.30;;;10.40;92.60;;;;;;5049870;28;20388;-64
2021/12/11 16:23:40;;;;;;;10.27;4.93;;;10.60;92.40;;;;;;5049782;28;20044;-65
2021/12/11 16:26:46;;;;;;;11.65;6.43;;;10.60;92.40;;;;;;5049607;28;20044;-65
2021/12/11 16:29:50;;;;;;;38.05;24.70;;;10.70;91.80;;;;;;5050348;28;20040;-64
2021/12/11 16:32:56;;;;;;;8.77;5.07;;;10.70;92.00;;;;;;5050016;28;20162;-65